sensor_id;sensor_type;location;lat;lon;timestamp;temperature;humidity
39777;DHT22;25453;48.162;14.510;2023-04-12T00:00:15;8.20;78.00
39777;DHT22;25453;48.162;14.510;2023-04-12T00:02:43;8.20;77.80
39777;DHT22;25453;48.162;14.510;2023-04-12T00:05:10;8.20;77.80
39777;DHT22;25453;48.162;14.510;2023-04-12T00:07:37;8.30;78.10
39777;DHT22;25453;48.162;14.510;2023-04-12T00:10:05;8.30;78.10
39777;DHT22;25453;48.162;14.510;2023-04-12T00:12:33;8.30;77.60
39777;DHT22;25453;48.162;14.510;2023-04-12T00:15:00;8.30;77.50
39777;DHT22;25453;48.162;14.510;2023-04-12T00:17:27;8.30;77.60
39777;DHT22;25453;48.162;14.510;2023-04-12T00:19:54;8.30;77.70
39777;DHT22;25453;48.162;14.510;2023-04-12T00:22:21;8.30;77.40
39777;DHT22;25453;48.162;14.510;2023-04-12T00:24:49;8.20;77.20
39777;DHT22;25453;48.162;14.510;2023-04-12T00:27:16;8.20;77.60
39777;DHT22;25453;48.162;14.510;2023-04-12T00:29:43;8.20;77.70
39777;DHT22;25453;48.162;14.510;2023-04-12T00:32:10;8.20;77.40
39777;DHT22;25453;48.162;14.510;2023-04-12T00:34:37;8.10;77.20
39777;DHT22;25453;48.162;14.510;2023-04-12T00:37:04;8.10;77.10
39777;DHT22;25453;48.162;14.510;2023-04-12T00:39:31;8.00;77.00
39777;DHT22;25453;48.162;14.510;2023-04-12T00:42:01;8.00;77.10
39777;DHT22;25453;48.162;14.510;2023-04-12T00:44:29;7.90;77.30
39777;DHT22;25453;48.162;14.510;2023-04-12T00:46:56;7.90;77.60
39777;DHT22;25453;48.162;14.510;2023-04-12T00:49:24;7.90;77.60
39777;DHT22;25453;48.162;14.510;2023-04-12T00:51:59;7.90;77.30
39777;DHT22;25453;48.162;14.510;2023-04-12T00:54:30;7.90;77.20
39777;DHT22;25453;48.162;14.510;2023-04-12T00:56:59;7.90;77.40
39777;DHT22;25453;48.162;14.510;2023-04-12T00:59:26;7.90;77.50
39777;DHT22;25453;48.162;14.510;2023-04-12T01:01:54;7.80;77.30
39777;DHT22;25453;48.162;14.510;2023-04-12T01:04:22;7.80;77.30
39777;DHT22;25453;48.162;14.510;2023-04-12T01:07:08;7.80;77.70
39777;DHT22;25453;48.162;14.510;2023-04-12T01:17:05;7.90;78.00
39777;DHT22;25453;48.162;14.510;2023-04-12T01:22:15;7.90;77.40
39777;DHT22;25453;48.162;14.510;2023-04-12T01:27:27;7.80;77.20
39777;DHT22;25453;48.162;14.510;2023-04-12T01:29:55;7.80;77.20
39777;DHT22;25453;48.162;14.510;2023-04-12T01:32:23;7.80;77.00
39777;DHT22;25453;48.162;14.510;2023-04-12T01:34:51;7.70;76.50
39777;DHT22;25453;48.162;14.510;2023-04-12T01:37:19;7.70;76.50
39777;DHT22;25453;48.162;14.510;2023-04-12T01:39:47;7.60;76.60
39777;DHT22;25453;48.162;14.510;2023-04-12T01:42:31;7.60;76.70
39777;DHT22;25453;48.162;14.510;2023-04-12T01:44:59;7.60;76.60
39777;DHT22;25453;48.162;14.510;2023-04-12T01:47:26;7.50;76.40
39777;DHT22;25453;48.162;14.510;2023-04-12T01:52:41;7.50;76.50
39777;DHT22;25453;48.162;14.510;2023-04-12T01:55:11;7.40;76.60
39777;DHT22;25453;48.162;14.510;2023-04-12T01:57:40;7.40;76.50
39777;DHT22;25453;48.162;14.510;2023-04-12T02:00:08;7.40;76.60
39777;DHT22;25453;48.162;14.510;2023-04-12T02:02:37;7.30;76.20
39777;DHT22;25453;48.162;14.510;2023-04-12T02:05:05;7.20;75.90
39777;DHT22;25453;48.162;14.510;2023-04-12T02:07:34;7.20;75.90
39777;DHT22;25453;48.162;14.510;2023-04-12T02:10:01;7.10;76.00
39777;DHT22;25453;48.162;14.510;2023-04-12T02:12:28;7.00;76.10
39777;DHT22;25453;48.162;14.510;2023-04-12T02:14:55;7.00;76.20
39777;DHT22;25453;48.162;14.510;2023-04-12T02:17:23;7.00;76.20
39777;DHT22;25453;48.162;14.510;2023-04-12T02:19:50;7.00;76.30
39777;DHT22;25453;48.162;14.510;2023-04-12T02:22:17;7.00;76.30
39777;DHT22;25453;48.162;14.510;2023-04-12T02:24:44;7.00;76.30
39777;DHT22;25453;48.162;14.510;2023-04-12T02:27:11;7.00;76.40
39777;DHT22;25453;48.162;14.510;2023-04-12T02:29:38;7.00;76.70
39777;DHT22;25453;48.162;14.510;2023-04-12T02:32:05;7.00;76.80
39777;DHT22;25453;48.162;14.510;2023-04-12T02:34:32;7.00;76.80
39777;DHT22;25453;48.162;14.510;2023-04-12T02:36:59;7.00;76.50
39777;DHT22;25453;48.162;14.510;2023-04-12T02:39:27;7.00;76.30
39777;DHT22;25453;48.162;14.510;2023-04-12T02:41:56;7.00;76.40
39777;DHT22;25453;48.162;14.510;2023-04-12T02:44:23;7.00;76.40
39777;DHT22;25453;48.162;14.510;2023-04-12T02:46:50;7.00;76.70
39777;DHT22;25453;48.162;14.510;2023-04-12T02:49:17;7.00;76.70
39777;DHT22;25453;48.162;14.510;2023-04-12T02:51:45;7.00;76.50
39777;DHT22;25453;48.162;14.510;2023-04-12T02:54:11;7.00;76.60
39777;DHT22;25453;48.162;14.510;2023-04-12T02:56:38;7.10;76.40
39777;DHT22;25453;48.162;14.510;2023-04-12T02:59:06;7.10;76.10
39777;DHT22;25453;48.162;14.510;2023-04-12T03:01:33;7.00;76.00
39777;DHT22;25453;48.162;14.510;2023-04-12T03:04:00;7.00;76.00
39777;DHT22;25453;48.162;14.510;2023-04-12T03:06:30;7.00;76.20
39777;DHT22;25453;48.162;14.510;2023-04-12T03:08:57;7.00;76.60
39777;DHT22;25453;48.162;14.510;2023-04-12T03:11:25;7.10;76.70
39777;DHT22;25453;48.162;14.510;2023-04-12T03:13:52;7.10;76.90
39777;DHT22;25453;48.162;14.510;2023-04-12T03:16:24;7.20;76.80
39777;DHT22;25453;48.162;14.510;2023-04-12T03:18:51;7.30;76.70
39777;DHT22;25453;48.162;14.510;2023-04-12T03:21:18;7.30;76.70
39777;DHT22;25453;48.162;14.510;2023-04-12T03:23:45;7.40;76.50
39777;DHT22;25453;48.162;14.510;2023-04-12T03:26:12;7.40;76.40
39777;DHT22;25453;48.162;14.510;2023-04-12T03:28:39;7.40;76.10
39777;DHT22;25453;48.162;14.510;2023-04-12T03:31:06;7.40;75.50
39777;DHT22;25453;48.162;14.510;2023-04-12T03:33:33;7.30;75.10
39777;DHT22;25453;48.162;14.510;2023-04-12T03:36:00;7.10;74.90
39777;DHT22;25453;48.162;14.510;2023-04-12T03:38:27;7.00;74.90
39777;DHT22;25453;48.162;14.510;2023-04-12T03:40:54;7.00;74.90
39777;DHT22;25453;48.162;14.510;2023-04-12T03:43:21;6.80;74.90
39777;DHT22;25453;48.162;14.510;2023-04-12T03:45:48;6.80;75.00
39777;DHT22;25453;48.162;14.510;2023-04-12T03:48:15;6.70;75.00
39777;DHT22;25453;48.162;14.510;2023-04-12T03:50:42;6.60;75.10
39777;DHT22;25453;48.162;14.510;2023-04-12T03:53:10;6.60;75.10
39777;DHT22;25453;48.162;14.510;2023-04-12T03:55:37;6.60;75.20
39777;DHT22;25453;48.162;14.510;2023-04-12T03:58:04;6.60;75.50
39777;DHT22;25453;48.162;14.510;2023-04-12T04:00:31;6.60;75.50
39777;DHT22;25453;48.162;14.510;2023-04-12T04:02:59;6.60;75.30
39777;DHT22;25453;48.162;14.510;2023-04-12T04:05:29;6.50;75.30
39777;DHT22;25453;48.162;14.510;2023-04-12T04:07:57;6.50;75.20
39777;DHT22;25453;48.162;14.510;2023-04-12T04:10:28;6.50;75.20
39777;DHT22;25453;48.162;14.510;2023-04-12T04:12:55;6.50;75.20
39777;DHT22;25453;48.162;14.510;2023-04-12T04:15:23;6.50;75.50
39777;DHT22;25453;48.162;14.510;2023-04-12T04:17:50;6.50;75.60
39777;DHT22;25453;48.162;14.510;2023-04-12T04:20:18;6.50;75.60
39777;DHT22;25453;48.162;14.510;2023-04-12T04:22:46;6.50;75.40
39777;DHT22;25453;48.162;14.510;2023-04-12T04:25:20;6.50;75.40
39777;DHT22;25453;48.162;14.510;2023-04-12T04:27:47;6.50;75.20
39777;DHT22;25453;48.162;14.510;2023-04-12T04:30:15;6.40;75.10
39777;DHT22;25453;48.162;14.510;2023-04-12T04:32:42;6.40;75.10
39777;DHT22;25453;48.162;14.510;2023-04-12T04:35:09;6.40;75.10
39777;DHT22;25453;48.162;14.510;2023-04-12T04:37:36;6.40;75.10
39777;DHT22;25453;48.162;14.510;2023-04-12T04:40:03;6.30;75.20
39777;DHT22;25453;48.162;14.510;2023-04-12T04:42:37;6.40;75.30
39777;DHT22;25453;48.162;14.510;2023-04-12T04:45:05;6.40;74.90
39777;DHT22;25453;48.162;14.510;2023-04-12T04:47:39;6.30;75.00
39777;DHT22;25453;48.162;14.510;2023-04-12T04:50:06;6.30;75.00
39777;DHT22;25453;48.162;14.510;2023-04-12T04:52:33;6.30;74.80
39777;DHT22;25453;48.162;14.510;2023-04-12T04:55:00;6.30;74.90
39777;DHT22;25453;48.162;14.510;2023-04-12T04:57:31;6.30;75.00
39777;DHT22;25453;48.162;14.510;2023-04-12T04:59:58;6.30;74.80
39777;DHT22;25453;48.162;14.510;2023-04-12T05:02:24;6.30;74.70
39777;DHT22;25453;48.162;14.510;2023-04-12T05:04:52;6.30;74.60
39777;DHT22;25453;48.162;14.510;2023-04-12T05:07:22;6.20;74.70
39777;DHT22;25453;48.162;14.510;2023-04-12T05:09:49;6.20;74.70
39777;DHT22;25453;48.162;14.510;2023-04-12T05:12:16;6.20;74.80
39777;DHT22;25453;48.162;14.510;2023-04-12T05:14:43;6.20;74.70
39777;DHT22;25453;48.162;14.510;2023-04-12T05:17:15;6.10;74.70
39777;DHT22;25453;48.162;14.510;2023-04-12T05:19:42;6.10;74.80
39777;DHT22;25453;48.162;14.510;2023-04-12T05:22:10;6.10;74.70
39777;DHT22;25453;48.162;14.510;2023-04-12T05:24:38;6.20;74.90
39777;DHT22;25453;48.162;14.510;2023-04-12T05:27:05;6.20;74.90
39777;DHT22;25453;48.162;14.510;2023-04-12T05:29:32;6.20;74.90
39777;DHT22;25453;48.162;14.510;2023-04-12T05:31:59;6.20;74.80
39777;DHT22;25453;48.162;14.510;2023-04-12T05:34:26;6.20;74.60
39777;DHT22;25453;48.162;14.510;2023-04-12T05:36:53;6.30;75.10
39777;DHT22;25453;48.162;14.510;2023-04-12T05:39:20;6.40;75.50
39777;DHT22;25453;48.162;14.510;2023-04-12T05:41:47;6.50;75.40
39777;DHT22;25453;48.162;14.510;2023-04-12T05:44:14;6.50;75.10
39777;DHT22;25453;48.162;14.510;2023-04-12T05:46:41;6.60;75.00
39777;DHT22;25453;48.162;14.510;2023-04-12T05:49:08;6.70;75.00
39777;DHT22;25453;48.162;14.510;2023-04-12T05:51:35;6.70;75.10
39777;DHT22;25453;48.162;14.510;2023-04-12T05:54:07;6.80;75.00
39777;DHT22;25453;48.162;14.510;2023-04-12T05:56:34;6.80;75.00
39777;DHT22;25453;48.162;14.510;2023-04-12T05:59:01;6.90;75.30
39777;DHT22;25453;48.162;14.510;2023-04-12T06:01:30;6.90;75.30
39777;DHT22;25453;48.162;14.510;2023-04-12T06:04:00;7.00;75.30
39777;DHT22;25453;48.162;14.510;2023-04-12T06:06:32;7.10;75.20
39777;DHT22;25453;48.162;14.510;2023-04-12T06:08:59;7.10;75.10
39777;DHT22;25453;48.162;14.510;2023-04-12T06:11:26;7.20;75.30
39777;DHT22;25453;48.162;14.510;2023-04-12T06:13:53;7.30;75.30
39777;DHT22;25453;48.162;14.510;2023-04-12T06:16:21;7.40;75.30
39777;DHT22;25453;48.162;14.510;2023-04-12T06:18:48;7.50;75.20
39777;DHT22;25453;48.162;14.510;2023-04-12T06:21:15;7.50;75.10
39777;DHT22;25453;48.162;14.510;2023-04-12T06:23:42;7.60;75.00
39777;DHT22;25453;48.162;14.510;2023-04-12T06:26:10;7.70;74.90
39777;DHT22;25453;48.162;14.510;2023-04-12T06:28:38;7.70;74.80
39777;DHT22;25453;48.162;14.510;2023-04-12T06:31:05;7.80;74.80
39777;DHT22;25453;48.162;14.510;2023-04-12T06:33:32;7.80;74.80
39777;DHT22;25453;48.162;14.510;2023-04-12T06:35:59;7.80;74.80
39777;DHT22;25453;48.162;14.510;2023-04-12T06:38:26;7.90;74.80
39777;DHT22;25453;48.162;14.510;2023-04-12T06:40:53;7.90;74.70
39777;DHT22;25453;48.162;14.510;2023-04-12T06:43:20;7.90;74.80
39777;DHT22;25453;48.162;14.510;2023-04-12T06:45:48;8.00;75.00
39777;DHT22;25453;48.162;14.510;2023-04-12T06:48:15;8.00;75.00
39777;DHT22;25453;48.162;14.510;2023-04-12T06:50:45;8.10;75.10
39777;DHT22;25453;48.162;14.510;2023-04-12T06:53:12;8.10;75.30
39777;DHT22;25453;48.162;14.510;2023-04-12T06:55:39;8.20;75.40
39777;DHT22;25453;48.162;14.510;2023-04-12T06:58:06;8.30;75.50
39777;DHT22;25453;48.162;14.510;2023-04-12T07:00:33;8.40;75.60
39777;DHT22;25453;48.162;14.510;2023-04-12T07:03:00;8.40;75.60
39777;DHT22;25453;48.162;14.510;2023-04-12T07:05:28;8.50;75.60
39777;DHT22;25453;48.162;14.510;2023-04-12T07:07:55;8.60;75.60
39777;DHT22;25453;48.162;14.510;2023-04-12T07:10:22;8.70;75.60
39777;DHT22;25453;48.162;14.510;2023-04-12T07:12:48;8.70;75.70
39777;DHT22;25453;48.162;14.510;2023-04-12T07:15:17;8.80;75.80
39777;DHT22;25453;48.162;14.510;2023-04-12T07:17:44;8.80;76.00
39777;DHT22;25453;48.162;14.510;2023-04-12T07:20:11;8.90;76.10
39777;DHT22;25453;48.162;14.510;2023-04-12T07:22:38;9.00;76.20
39777;DHT22;25453;48.162;14.510;2023-04-12T07:25:06;9.10;76.40
39777;DHT22;25453;48.162;14.510;2023-04-12T07:27:35;9.20;76.60
39777;DHT22;25453;48.162;14.510;2023-04-12T07:30:03;9.30;76.80
39777;DHT22;25453;48.162;14.510;2023-04-12T07:32:29;9.40;76.70
39777;DHT22;25453;48.162;14.510;2023-04-12T07:34:57;9.50;76.40
39777;DHT22;25453;48.162;14.510;2023-04-12T07:37:24;9.50;76.10
39777;DHT22;25453;48.162;14.510;2023-04-12T07:39:51;9.50;76.10
39777;DHT22;25453;48.162;14.510;2023-04-12T07:42:19;9.60;76.20
39777;DHT22;25453;48.162;14.510;2023-04-12T07:44:45;9.60;76.10
39777;DHT22;25453;48.162;14.510;2023-04-12T07:47:12;9.60;76.10
39777;DHT22;25453;48.162;14.510;2023-04-12T07:49:39;9.70;76.10
39777;DHT22;25453;48.162;14.510;2023-04-12T07:52:06;9.70;76.30
39777;DHT22;25453;48.162;14.510;2023-04-12T07:54:33;9.80;76.40
39777;DHT22;25453;48.162;14.510;2023-04-12T07:57:01;9.80;76.40
39777;DHT22;25453;48.162;14.510;2023-04-12T07:59:29;9.90;76.30
39777;DHT22;25453;48.162;14.510;2023-04-12T08:01:57;10.00;76.20
39777;DHT22;25453;48.162;14.510;2023-04-12T08:04:24;10.00;76.10
39777;DHT22;25453;48.162;14.510;2023-04-12T08:06:51;10.10;76.30
39777;DHT22;25453;48.162;14.510;2023-04-12T08:09:18;10.10;76.50
39777;DHT22;25453;48.162;14.510;2023-04-12T08:11:45;10.20;76.70
39777;DHT22;25453;48.162;14.510;2023-04-12T08:14:12;10.30;76.90
39777;DHT22;25453;48.162;14.510;2023-04-12T08:16:39;10.40;76.80
39777;DHT22;25453;48.162;14.510;2023-04-12T08:19:06;10.50;76.70
39777;DHT22;25453;48.162;14.510;2023-04-12T08:21:33;10.60;76.20
39777;DHT22;25453;48.162;14.510;2023-04-12T08:24:00;10.60;76.20
39777;DHT22;25453;48.162;14.510;2023-04-12T08:26:27;10.70;76.20
39777;DHT22;25453;48.162;14.510;2023-04-12T08:28:55;10.70;76.20
39777;DHT22;25453;48.162;14.510;2023-04-12T08:31:23;10.80;75.90
39777;DHT22;25453;48.162;14.510;2023-04-12T08:33:50;10.90;76.00
39777;DHT22;25453;48.162;14.510;2023-04-12T08:36:17;10.90;76.00
39777;DHT22;25453;48.162;14.510;2023-04-12T08:38:44;10.90;76.10
39777;DHT22;25453;48.162;14.510;2023-04-12T08:41:12;11.00;76.20
39777;DHT22;25453;48.162;14.510;2023-04-12T08:43:42;11.10;76.20
39777;DHT22;25453;48.162;14.510;2023-04-12T08:46:11;11.20;76.20
39777;DHT22;25453;48.162;14.510;2023-04-12T08:48:45;11.30;76.10
39777;DHT22;25453;48.162;14.510;2023-04-12T08:51:12;11.40;76.30
39777;DHT22;25453;48.162;14.510;2023-04-12T08:53:40;11.60;76.40
39777;DHT22;25453;48.162;14.510;2023-04-12T08:56:08;11.70;76.40
39777;DHT22;25453;48.162;14.510;2023-04-12T08:58:40;11.80;76.10
39777;DHT22;25453;48.162;14.510;2023-04-12T09:01:09;12.00;76.10
39777;DHT22;25453;48.162;14.510;2023-04-12T09:03:37;12.10;76.20
39777;DHT22;25453;48.162;14.510;2023-04-12T09:06:05;12.30;75.90
39777;DHT22;25453;48.162;14.510;2023-04-12T09:08:32;12.40;75.60
39777;DHT22;25453;48.162;14.510;2023-04-12T09:10:59;12.50;75.30
39777;DHT22;25453;48.162;14.510;2023-04-12T09:13:33;12.60;75.20
39777;DHT22;25453;48.162;14.510;2023-04-12T09:16:01;12.70;75.10
39777;DHT22;25453;48.162;14.510;2023-04-12T09:18:28;12.80;74.90
39777;DHT22;25453;48.162;14.510;2023-04-12T09:21:05;12.90;74.80
39777;DHT22;25453;48.162;14.510;2023-04-12T09:23:33;12.90;74.50
39777;DHT22;25453;48.162;14.510;2023-04-12T09:26:03;13.00;74.50
39777;DHT22;25453;48.162;14.510;2023-04-12T09:28:30;13.10;74.40
39777;DHT22;25453;48.162;14.510;2023-04-12T09:30:57;13.20;74.30
39777;DHT22;25453;48.162;14.510;2023-04-12T09:33:37;13.30;73.90
39777;DHT22;25453;48.162;14.510;2023-04-12T09:36:05;13.30;73.40
39777;DHT22;25453;48.162;14.510;2023-04-12T09:38:34;13.40;73.50
39777;DHT22;25453;48.162;14.510;2023-04-12T09:41:19;13.50;73.30
39777;DHT22;25453;48.162;14.510;2023-04-12T09:43:52;13.50;72.70
39777;DHT22;25453;48.162;14.510;2023-04-12T09:46:19;13.50;72.10
39777;DHT22;25453;48.162;14.510;2023-04-12T09:48:50;13.40;72.00
39777;DHT22;25453;48.162;14.510;2023-04-12T09:51:27;13.40;71.90
39777;DHT22;25453;48.162;14.510;2023-04-12T09:54:02;13.30;71.60
39777;DHT22;25453;48.162;14.510;2023-04-12T09:56:30;13.20;71.70
39777;DHT22;25453;48.162;14.510;2023-04-12T09:58:59;13.10;71.70
39777;DHT22;25453;48.162;14.510;2023-04-12T10:01:26;13.10;71.70
39777;DHT22;25453;48.162;14.510;2023-04-12T10:03:54;13.10;71.80
39777;DHT22;25453;48.162;14.510;2023-04-12T10:06:22;13.10;72.00
39777;DHT22;25453;48.162;14.510;2023-04-12T10:08:52;13.10;72.20
39777;DHT22;25453;48.162;14.510;2023-04-12T10:11:19;13.10;72.30
39777;DHT22;25453;48.162;14.510;2023-04-12T10:13:47;13.20;72.30
39777;DHT22;25453;48.162;14.510;2023-04-12T10:16:15;13.30;71.70
39777;DHT22;25453;48.162;14.510;2023-04-12T10:18:42;13.30;71.70
39777;DHT22;25453;48.162;14.510;2023-04-12T10:21:09;13.30;71.50
39777;DHT22;25453;48.162;14.510;2023-04-12T10:23:37;13.30;71.40
39777;DHT22;25453;48.162;14.510;2023-04-12T10:26:04;13.30;71.10
39777;DHT22;25453;48.162;14.510;2023-04-12T10:28:31;13.30;70.70
39777;DHT22;25453;48.162;14.510;2023-04-12T10:30:58;13.40;70.50
39777;DHT22;25453;48.162;14.510;2023-04-12T10:33:26;13.30;70.10
39777;DHT22;25453;48.162;14.510;2023-04-12T10:38:25;13.30;69.60
39777;DHT22;25453;48.162;14.510;2023-04-12T10:41:16;13.30;69.70
39777;DHT22;25453;48.162;14.510;2023-04-12T10:49:12;13.50;69.40
39777;DHT22;25453;48.162;14.510;2023-04-12T10:54:36;13.70;68.70
39777;DHT22;25453;48.162;14.510;2023-04-12T10:57:03;13.70;67.90
39777;DHT22;25453;48.162;14.510;2023-04-12T11:02:16;13.70;66.80
39777;DHT22;25453;48.162;14.510;2023-04-12T11:07:39;13.80;66.80
39777;DHT22;25453;48.162;14.510;2023-04-12T11:10:14;14.00;66.50
39777;DHT22;25453;48.162;14.510;2023-04-12T11:12:53;14.20;66.10
39777;DHT22;25453;48.162;14.510;2023-04-12T11:15:25;14.40;65.50
39777;DHT22;25453;48.162;14.510;2023-04-12T11:17:56;14.70;65.50
39777;DHT22;25453;48.162;14.510;2023-04-12T11:20:24;15.00;65.40
39777;DHT22;25453;48.162;14.510;2023-04-12T11:22:52;15.20;65.20
39777;DHT22;25453;48.162;14.510;2023-04-12T11:25:20;15.50;63.70
39777;DHT22;25453;48.162;14.510;2023-04-12T11:27:50;15.70;60.90
39777;DHT22;25453;48.162;14.510;2023-04-12T11:30:18;15.80;61.00
39777;DHT22;25453;48.162;14.510;2023-04-12T11:32:46;15.90;58.60
39777;DHT22;25453;48.162;14.510;2023-04-12T11:35:13;15.90;59.50
39777;DHT22;25453;48.162;14.510;2023-04-12T11:37:43;16.00;59.10
39777;DHT22;25453;48.162;14.510;2023-04-12T11:40:11;16.00;58.20
39777;DHT22;25453;48.162;14.510;2023-04-12T11:42:38;16.00;58.20
39777;DHT22;25453;48.162;14.510;2023-04-12T11:45:05;16.00;57.90
39777;DHT22;25453;48.162;14.510;2023-04-12T11:47:43;16.00;57.60
39777;DHT22;25453;48.162;14.510;2023-04-12T11:50:10;15.90;57.40
39777;DHT22;25453;48.162;14.510;2023-04-12T11:52:39;15.80;57.00
39777;DHT22;25453;48.162;14.510;2023-04-12T11:55:08;15.60;56.60
39777;DHT22;25453;48.162;14.510;2023-04-12T11:57:37;15.40;56.00
39777;DHT22;25453;48.162;14.510;2023-04-12T12:00:05;15.20;56.00
39777;DHT22;25453;48.162;14.510;2023-04-12T12:02:33;15.00;55.90
39777;DHT22;25453;48.162;14.510;2023-04-12T12:05:11;14.90;56.10
39777;DHT22;25453;48.162;14.510;2023-04-12T12:07:39;14.80;56.20
39777;DHT22;25453;48.162;14.510;2023-04-12T12:10:06;14.70;56.20
39777;DHT22;25453;48.162;14.510;2023-04-12T12:12:34;14.60;56.20
39777;DHT22;25453;48.162;14.510;2023-04-12T12:15:01;14.50;56.20
39777;DHT22;25453;48.162;14.510;2023-04-12T12:17:28;14.50;56.10
39777;DHT22;25453;48.162;14.510;2023-04-12T12:19:55;14.40;56.10
39777;DHT22;25453;48.162;14.510;2023-04-12T12:22:22;14.40;56.10
39777;DHT22;25453;48.162;14.510;2023-04-12T12:24:57;14.40;56.30
39777;DHT22;25453;48.162;14.510;2023-04-12T12:27:34;14.40;56.30
39777;DHT22;25453;48.162;14.510;2023-04-12T12:30:01;14.40;56.30
39777;DHT22;25453;48.162;14.510;2023-04-12T12:32:33;14.40;56.50
39777;DHT22;25453;48.162;14.510;2023-04-12T12:35:01;14.50;56.20
39777;DHT22;25453;48.162;14.510;2023-04-12T12:37:29;14.50;56.30
39777;DHT22;25453;48.162;14.510;2023-04-12T12:42:26;14.50;55.80
39777;DHT22;25453;48.162;14.510;2023-04-12T12:44:54;14.50;55.90
39777;DHT22;25453;48.162;14.510;2023-04-12T12:47:21;14.50;56.20
39777;DHT22;25453;48.162;14.510;2023-04-12T12:49:48;14.60;56.10
39777;DHT22;25453;48.162;14.510;2023-04-12T12:52:16;14.60;56.00
39777;DHT22;25453;48.162;14.510;2023-04-12T12:54:43;14.60;55.90
39777;DHT22;25453;48.162;14.510;2023-04-12T12:57:10;14.60;56.10
39777;DHT22;25453;48.162;14.510;2023-04-12T12:59:37;14.60;55.90
39777;DHT22;25453;48.162;14.510;2023-04-12T13:02:05;14.50;55.60
39777;DHT22;25453;48.162;14.510;2023-04-12T13:04:33;14.40;55.60
39777;DHT22;25453;48.162;14.510;2023-04-12T13:07:00;14.40;55.90
39777;DHT22;25453;48.162;14.510;2023-04-12T13:09:27;14.30;56.00
39777;DHT22;25453;48.162;14.510;2023-04-12T13:11:54;14.30;56.30
39777;DHT22;25453;48.162;14.510;2023-04-12T13:14:23;14.30;56.30
39777;DHT22;25453;48.162;14.510;2023-04-12T13:16:50;14.30;56.60
39777;DHT22;25453;48.162;14.510;2023-04-12T13:19:17;14.40;56.80
39777;DHT22;25453;48.162;14.510;2023-04-12T13:21:44;14.40;56.80
39777;DHT22;25453;48.162;14.510;2023-04-12T13:24:11;14.50;56.70
39777;DHT22;25453;48.162;14.510;2023-04-12T13:26:38;14.60;56.80
39777;DHT22;25453;48.162;14.510;2023-04-12T13:29:08;14.70;56.60
39777;DHT22;25453;48.162;14.510;2023-04-12T13:31:35;14.80;56.50
39777;DHT22;25453;48.162;14.510;2023-04-12T13:34:02;14.90;56.50
39777;DHT22;25453;48.162;14.510;2023-04-12T13:36:29;14.90;56.40
39777;DHT22;25453;48.162;14.510;2023-04-12T13:38:56;15.00;56.10
39777;DHT22;25453;48.162;14.510;2023-04-12T13:41:24;14.90;55.90
39777;DHT22;25453;48.162;14.510;2023-04-12T13:43:51;14.90;55.80
39777;DHT22;25453;48.162;14.510;2023-04-12T13:46:18;14.80;55.80
39777;DHT22;25453;48.162;14.510;2023-04-12T13:48:45;14.80;55.80
39777;DHT22;25453;48.162;14.510;2023-04-12T13:51:12;14.70;55.90
39777;DHT22;25453;48.162;14.510;2023-04-12T13:53:40;14.60;56.10
39777;DHT22;25453;48.162;14.510;2023-04-12T13:56:07;14.50;56.20
39777;DHT22;25453;48.162;14.510;2023-04-12T13:58:34;14.50;56.20
39777;DHT22;25453;48.162;14.510;2023-04-12T14:01:01;14.40;56.50
39777;DHT22;25453;48.162;14.510;2023-04-12T14:03:28;14.40;56.70
39777;DHT22;25453;48.162;14.510;2023-04-12T14:05:55;14.40;57.00
39777;DHT22;25453;48.162;14.510;2023-04-12T14:08:23;14.50;57.20
39777;DHT22;25453;48.162;14.510;2023-04-12T14:10:50;14.60;57.10
39777;DHT22;25453;48.162;14.510;2023-04-12T14:13:17;14.60;57.00
39777;DHT22;25453;48.162;14.510;2023-04-12T14:15:44;14.60;57.00
39777;DHT22;25453;48.162;14.510;2023-04-12T14:18:11;14.60;57.00
39777;DHT22;25453;48.162;14.510;2023-04-12T14:20:38;14.60;57.10
39777;DHT22;25453;48.162;14.510;2023-04-12T14:23:05;14.60;57.10
39777;DHT22;25453;48.162;14.510;2023-04-12T14:25:34;14.60;57.20
39777;DHT22;25453;48.162;14.510;2023-04-12T14:28:02;14.60;57.20
39777;DHT22;25453;48.162;14.510;2023-04-12T14:30:29;14.60;57.20
39777;DHT22;25453;48.162;14.510;2023-04-12T14:32:56;14.60;57.10
39777;DHT22;25453;48.162;14.510;2023-04-12T14:35:23;14.60;57.10
39777;DHT22;25453;48.162;14.510;2023-04-12T14:37:51;14.60;57.20
39777;DHT22;25453;48.162;14.510;2023-04-12T14:40:17;14.70;57.30
39777;DHT22;25453;48.162;14.510;2023-04-12T14:42:44;14.70;57.40
39777;DHT22;25453;48.162;14.510;2023-04-12T14:45:11;14.70;57.50
39777;DHT22;25453;48.162;14.510;2023-04-12T14:47:38;14.80;57.70
39777;DHT22;25453;48.162;14.510;2023-04-12T14:50:07;14.90;58.00
39777;DHT22;25453;48.162;14.510;2023-04-12T14:52:34;14.90;58.10
39777;DHT22;25453;48.162;14.510;2023-04-12T14:55:01;15.00;58.00
39777;DHT22;25453;48.162;14.510;2023-04-12T14:57:28;15.00;57.90
39777;DHT22;25453;48.162;14.510;2023-04-12T14:59:55;15.00;57.70
39777;DHT22;25453;48.162;14.510;2023-04-12T15:02:22;14.90;57.70
39777;DHT22;25453;48.162;14.510;2023-04-12T15:04:50;14.90;57.70
39777;DHT22;25453;48.162;14.510;2023-04-12T15:07:17;14.80;57.80
39777;DHT22;25453;48.162;14.510;2023-04-12T15:09:44;14.80;57.90
39777;DHT22;25453;48.162;14.510;2023-04-12T15:12:11;14.70;57.90
39777;DHT22;25453;48.162;14.510;2023-04-12T15:14:38;14.70;58.00
39777;DHT22;25453;48.162;14.510;2023-04-12T15:17:06;14.60;58.20
39777;DHT22;25453;48.162;14.510;2023-04-12T15:19:33;14.60;58.60
39777;DHT22;25453;48.162;14.510;2023-04-12T15:22:01;14.60;58.70
39777;DHT22;25453;48.162;14.510;2023-04-12T15:24:28;14.50;58.80
39777;DHT22;25453;48.162;14.510;2023-04-12T15:26:56;14.50;58.80
39777;DHT22;25453;48.162;14.510;2023-04-12T15:29:23;14.50;58.90
39777;DHT22;25453;48.162;14.510;2023-04-12T15:31:53;14.50;59.10
39777;DHT22;25453;48.162;14.510;2023-04-12T15:34:22;14.50;59.20
39777;DHT22;25453;48.162;14.510;2023-04-12T15:36:50;14.50;59.40
39777;DHT22;25453;48.162;14.510;2023-04-12T15:39:18;14.50;59.60
39777;DHT22;25453;48.162;14.510;2023-04-12T15:41:45;14.50;59.70
39777;DHT22;25453;48.162;14.510;2023-04-12T15:44:12;14.50;59.80
39777;DHT22;25453;48.162;14.510;2023-04-12T15:46:39;14.50;59.80
39777;DHT22;25453;48.162;14.510;2023-04-12T15:49:07;14.50;59.90
39777;DHT22;25453;48.162;14.510;2023-04-12T15:51:35;14.50;60.00
39777;DHT22;25453;48.162;14.510;2023-04-12T15:54:03;14.50;60.00
39777;DHT22;25453;48.162;14.510;2023-04-12T15:56:30;14.50;60.00
39777;DHT22;25453;48.162;14.510;2023-04-12T15:58:58;14.50;60.00
39777;DHT22;25453;48.162;14.510;2023-04-12T16:01:26;14.40;60.10